Soleil Weather Down

Unfortunately, due to a number of different issues, the weather site is temporarily down. Until and if, I am able to get these issues resolved I have provided the link to the nearby Metar stations at local airports. Thank you for your underatanding.

Nearby METAR Reports

 

KCNI - Canton/Cherokee, Georgia, USA
Distance from station: ENE 6mi, 10km
Updated: Mon, 19-Feb-2018 2:15am EST
Mist, Overcast
Mist, Overcast
 Wind from E
Wind: E 7 mph , 11 km/h
Temperature: 55°F , 13°C
Dew Point: 55°F , 13°C
Humidity: 100%
Barometer: 30.29 inHg , 1025.7 hPa
Summary: Mist
Clouds: Overcast
Visibility: 3 miles , 5 km
Cloud details: Overcast 400 ft
2018/02/19 07:15 KCNI 190715Z AUTO 08006KT 050V110 3SM BR OVC004 13/13 A3029 RMK AO2
KRYY - Marietta Mccolum, Georgia, USA
Distance from station: SSW 18mi, 29km
Updated: Mon, 19-Feb-2018 1:48am EST
Overcast
Overcast
 Wind from E
Wind: E 9 mph , 15 km/h
Temperature: 57°F , 14°C
Dew Point: 55°F , 13°C
Humidity: 94%
Barometer: 30.27 inHg , 1025.1 hPa
Clouds: Overcast
Visibility: 10 miles , 16 km
Cloud details: Overcast 400 ft
2018/02/19 06:48 KRYY 190648Z AUTO 10008KT 10SM OVC004 14/13 A3027 RMK AO2 SLP972 T01440133
KVPC - Cartersville, Georgia, USA
Distance from station: WSW 22mi, 35km
Updated: Mon, 19-Feb-2018 1:53am EST
Overcast
Overcast
 Wind from E
Wind: E 9 mph , 15 km/h
Temperature: 59°F , 15°C
Dew Point: 59°F , 15°C
Humidity: 100%
Barometer: 30.25 inHg , 1024.4 hPa
Clouds: Overcast
Visibility: 10 miles , 16 km
Cloud details: Overcast 700 ft
2018/02/19 06:53 KVPC 190653Z AUTO 10008KT 10SM OVC007 15/15 A3025 RMK AO2 SLP236 T01500150
 
KMGE - Dobbins Afb/Mari, Georgia, USA
Distance from station: S 24mi, 39km
Updated: Mon, 19-Feb-2018 2:26am EST
Mist, Overcast
Mist, Overcast
 Wind from E
Wind: E 12 mph , 19 km/h
Summary: Mist
Clouds: Overcast
Visibility: 3 miles , 5 km
Cloud details: Overcast 300 ft
2018/02/19 07:26 KMGE 190726Z AUTO 10010KT 3SM R29/6000FT BR OVC003 M A3027 RMK AO2 SLPNO ALSTG ESTMD $
KPDK - Peachtree/Dekalb, Georgia, USA
Distance from station: SSE 29mi, 47km
Updated: Mon, 19-Feb-2018 2:32am EST
Mist, Overcast
Mist, Overcast
 Wind from E
Wind: E 6 mph , 9 km/h
Temperature: 57°F , 14°C
Dew Point: 55°F , 13°C
Humidity: 94%
Barometer: 30.27 inHg , 1025.1 hPa
Summary: Mist
Clouds: Overcast
Visibility: 1 3/4 miles , 5 km
Cloud details: Overcast 200 ft
2018/02/19 07:32 KPDK 190732Z AUTO 10005KT 1 3/4SM BR OVC002 14/13 A3027 RMK AO2 T01390133
KFTY - Atlanta/Fulton, Georgia, USA
Distance from station: S 34mi, 54km
Updated: Mon, 19-Feb-2018 2:20am EST
Overcast
Overcast
 Wind from E
Wind: E 5 mph , 7 km/h
Temperature: 59°F , 15°C
Dew Point: 59°F , 15°C
Humidity: 100%
Barometer: 30.26 inHg , 1024.7 hPa
Clouds: Overcast
Visibility: 7 miles , 11 km
Cloud details: Overcast 600 ft
2018/02/19 07:20 KFTY 190720Z 09004KT 7SM OVC006 15/15 A3026 RMK AO2 T01500150 $
 
KPUJ - Atlanta/Paulding, Georgia, USA
Distance from station: SW 34mi, 55km
Updated: Mon, 19-Feb-2018 2:15am EST
Fog, Overcast
Fog, Overcast
 Wind from SE
Wind: SE 7 mph , 11 km/h
Temperature: 63°F , 17°C
Barometer: 30.25 inHg , 1024.4 hPa
Summary: Fog
Clouds: Overcast
Visibility: 1/4 mile , 2 km
Cloud details: Overcast 200 ft
2018/02/19 07:15 KPUJ 190715Z AUTO 13006KT 1/4SM FG OVC002 17/ A3025 RMK AO2
KDNN - Dalton, Georgia, USA
Distance from station: NW 37mi, 59km
Updated: Mon, 19-Feb-2018 2:35am EST
Overcast
Overcast
 Wind from SSW
Wind: SSW 3 mph , 6 km/h
Temperature: 55°F , 13°C
Dew Point: 55°F , 13°C
Humidity: 100%
Barometer: 30.26 inHg , 1024.7 hPa
Clouds: Overcast
Visibility: 10 miles , 16 km
Cloud details: Overcast 1800 ft
2018/02/19 07:35 KDNN 190735Z AUTO 21003KT 10SM OVC018 13/13 A3026 RMK AO2
KLZU - Lawrenceville, Georgia, USA
Distance from station: ESE 37mi, 59km
Updated: Mon, 19-Feb-2018 2:07am EST
Mist, Overcast
Mist, Overcast
 Wind from ENE
Wind: ENE 9 mph , 15 km/h
Temperature: 55°F , 13°C
Dew Point: 55°F , 13°C
Humidity: 100%
Summary: Mist
Clouds: Overcast
Visibility: 1 3/4 miles , 5 km
Cloud details: Overcast 200 ft
2018/02/19 07:07 KLZU 190707Z AUTO 07008KT 1 3/4SM BR OVC002 13/13 RMK AO2 $
 
KRMG - Rome, Georgia, USA
Distance from station: W 38mi, 61km
Updated: Mon, 19-Feb-2018 1:53am EST
Overcast
Overcast
 Wind from SE
Wind: SE 5 mph , 7 km/h
Temperature: 61°F , 16°C
Dew Point: 59°F , 15°C
Humidity: 94%
Barometer: 30.23 inHg , 1023.7 hPa
Clouds: Overcast
Visibility: 10 miles , 16 km
Cloud details: Overcast 700 ft
2018/02/19 06:53 KRMG 190653Z AUTO 14004KT 10SM OVC007 16/15 A3023 RMK AO2 SLP231 T01610150
KGVL - Gainesville, Georgia, USA
Distance from station: E 39mi, 62km
Updated: Mon, 19-Feb-2018 2:32am EST
Mist, Overcast
Mist, Overcast
 Wind from E
Wind: E 10 mph , 17 km/h
Temperature: 55°F , 13°C
Dew Point: 55°F , 13°C
Humidity: 100%
Barometer: 30.31 inHg , 1026.4 hPa
Summary: Mist
Clouds: Overcast
Visibility: 2 miles , 3 km
Cloud details: Overcast 300 ft
2018/02/19 07:32 KGVL 190732Z AUTO 08009KT 2SM BR OVC003 13/13 A3031 RMK AO2 T01280128
KATL - Atlanta, Georgia, USA
Distance from station: S 44mi, 71km
Updated: Mon, 19-Feb-2018 2:23am EST
Light drizzle, Mist, Overcast
Light drizzle, Mist, Overcast
 Wind from ESE
Wind: ESE 8 mph , 13 km/h
Temperature: 59°F , 15°C
Dew Point: 59°F , 15°C
Humidity: 100%
Barometer: 30.27 inHg , 1025.1 hPa
Summary: Light drizzle, Mist
Clouds: Overcast
Visibility: 1/2 mile , 2 km
Cloud details: Overcast 300 ft
2018/02/19 07:23 KATL 190723Z 11007KT 1/2SM R09R/P6000FT -DZ BR OVC003 15/15 A3027 RMK AO2 SFC VIS 1 3/4 TWRINC P0000 T01500150